Aldwick, United Kingdom
Current Conditions -  °F | °C
As of 8:20 AM on Thursday 18 Dec 2014 (Local Time) from EGGD Reporting Station
Rain Showers Rain Showers  
Wind Chill: 50°   Ceiling: 400
Heat Index: 50°   Visibility: 5mi
Dew Point: 50°   Wind: 21mph
Humidity: 100%   Direction: 250°WSW
Pressure: 29.85"   Gusts: 32mph
Location:  51.34°N, 2.77°W
Report Text: EGGD 180820Z 25018G28KT 8000 VCSH BKN004 10/10 Q1011
Loading
Personal Weather Stations






























Interactive Weather Map New forecast layout! Learn more

10-Day Weather Forecast

Advertisements
Track Severe Weather on mobile